createdAt,value
2019-05-29T00:00:43.537Z,8.64
2019-05-29T00:01:43.513Z,8.71
2019-05-29T00:02:43.503Z,8.68
2019-05-29T00:03:43.505Z,8.63
2019-05-29T00:04:43.478Z,8.70
2019-05-29T00:05:43.471Z,8.67
2019-05-29T00:06:43.460Z,8.63
2019-05-29T00:07:43.450Z,8.65
2019-05-29T00:08:43.446Z,8.61
2019-05-29T00:09:43.423Z,8.49
2019-05-29T00:10:43.422Z,8.57
2019-05-29T00:11:43.407Z,8.52
2019-05-29T00:12:43.396Z,8.50
2019-05-29T00:13:43.399Z,8.45
2019-05-29T00:14:43.380Z,8.45
2019-05-29T00:15:43.358Z,8.49
2019-05-29T00:16:43.362Z,8.46
2019-05-29T00:17:43.346Z,8.46
2019-05-29T00:18:43.321Z,8.34
2019-05-29T00:19:43.317Z,8.40
2019-05-29T00:20:43.303Z,8.37
2019-05-29T00:21:43.288Z,8.37
2019-05-29T00:22:43.297Z,8.36
2019-05-29T00:23:43.296Z,8.28
2019-05-29T00:24:43.257Z,8.31
2019-05-29T00:25:43.244Z,8.32
2019-05-29T00:26:43.233Z,8.34
2019-05-29T00:27:43.268Z,8.20
2019-05-29T00:28:43.214Z,8.21
2019-05-29T00:29:43.211Z,8.22
2019-05-29T00:30:43.189Z,8.22
2019-05-29T00:31:43.178Z,8.20
2019-05-29T00:32:43.178Z,8.17
2019-05-29T00:33:43.175Z,8.10
2019-05-29T00:34:43.209Z,8.12
2019-05-29T00:35:43.147Z,8.14
2019-05-29T00:36:43.127Z,8.06
2019-05-29T00:37:43.131Z,8.04
2019-05-29T00:38:43.110Z,7.99
2019-05-29T00:39:43.091Z,8.04
2019-05-29T00:40:43.149Z,8.10
2019-05-29T00:41:43.078Z,7.96
2019-05-29T00:42:43.060Z,8.09
2019-05-29T00:43:43.051Z,8.04
2019-05-29T00:44:43.039Z,7.94
2019-05-29T00:45:43.040Z,8.07
2019-05-29T00:46:43.051Z,8.02
2019-05-29T00:47:43.007Z,7.95
2019-05-29T00:48:42.996Z,8.09
2019-05-29T00:49:42.995Z,8.03
2019-05-29T00:50:42.974Z,7.96
2019-05-29T00:51:42.961Z,7.96
2019-05-29T00:52:42.955Z,7.92
2019-05-29T00:53:42.954Z,7.95
2019-05-29T00:54:42.934Z,7.82
2019-05-29T00:55:42.917Z,7.86
2019-05-29T00:56:42.909Z,7.81
2019-05-29T00:57:42.899Z,7.81
2019-05-29T00:58:42.895Z,7.82
2019-05-29T00:59:42.880Z,7.79
2019-05-29T01:00:42.861Z,7.71
2019-05-29T01:01:42.852Z,7.73
2019-05-29T01:02:42.907Z,7.79
2019-05-29T01:03:42.862Z,7.71
2019-05-29T01:04:42.820Z,7.69
2019-05-29T01:05:42.834Z,7.70
2019-05-29T01:06:42.797Z,7.66
2019-05-29T01:07:42.788Z,7.62
2019-05-29T01:08:42.779Z,7.67
2019-05-29T01:09:42.772Z,7.58
2019-05-29T01:10:42.754Z,7.52
2019-05-29T01:11:42.744Z,7.51
2019-05-29T01:12:42.741Z,7.60
2019-05-29T01:13:42.725Z,7.50
2019-05-29T01:14:50.039Z,7.47
2019-05-29T01:15:43.700Z,7.47
2019-05-29T01:16:42.686Z,7.42
2019-05-29T01:17:42.688Z,7.48
2019-05-29T01:18:42.663Z,7.41
2019-05-29T01:19:42.664Z,7.48
2019-05-29T01:20:42.646Z,7.45
2019-05-29T01:21:42.636Z,7.36
2019-05-29T01:22:42.631Z,7.41
2019-05-29T01:23:42.614Z,7.42
2019-05-29T01:24:42.601Z,7.41
2019-05-29T01:25:42.593Z,7.39
2019-05-29T01:26:42.600Z,7.36
2019-05-29T01:27:42.596Z,7.32
2019-05-29T01:28:42.552Z,7.23
2019-05-29T01:29:42.558Z,7.33
2019-05-29T01:30:42.538Z,7.32
2019-05-29T01:31:42.532Z,7.26
2019-05-29T01:32:42.515Z,7.32
2019-05-29T01:33:42.513Z,7.26
2019-05-29T01:34:42.498Z,7.16
2019-05-29T01:35:42.481Z,7.16
2019-05-29T01:36:42.463Z,7.14
2019-05-29T01:37:42.455Z,7.15
2019-05-29T01:38:42.445Z,7.11
2019-05-29T01:39:42.450Z,7.15
2019-05-29T01:40:42.420Z,7.04
2019-05-29T01:41:42.407Z,7.08
2019-05-29T01:42:42.402Z,7.07
2019-05-29T01:43:42.386Z,7.05
2019-05-29T01:44:42.375Z,7.04
2019-05-29T01:45:42.408Z,7.08
2019-05-29T01:46:42.353Z,7.01
2019-05-29T01:47:42.348Z,7.08
2019-05-29T01:48:42.331Z,7.00
2019-05-29T01:49:42.334Z,6.99
2019-05-29T01:50:42.324Z,6.96
2019-05-29T01:51:42.295Z,7.00
2019-05-29T01:52:42.288Z,6.99
2019-05-29T01:53:42.280Z,7.00
2019-05-29T01:54:42.270Z,6.87
2019-05-29T01:55:42.266Z,6.86
2019-05-29T01:56:42.246Z,6.94
2019-05-29T01:57:42.230Z,6.87
2019-05-29T01:58:42.220Z,6.87
2019-05-29T01:59:42.205Z,6.93
2019-05-29T02:00:42.212Z,6.89
2019-05-29T02:01:42.187Z,6.90
2019-05-29T02:02:42.174Z,6.81
2019-05-29T02:03:42.171Z,6.78
2019-05-29T02:04:42.172Z,6.79
2019-05-29T02:05:42.147Z,6.91
2019-05-29T02:06:42.145Z,6.72
2019-05-29T02:07:42.123Z,6.69
2019-05-29T02:08:42.111Z,6.72
2019-05-29T02:09:42.098Z,6.71
2019-05-29T02:10:42.099Z,6.64
2019-05-29T02:11:42.095Z,6.65
2019-05-29T02:12:42.067Z,6.72
2019-05-29T02:13:42.050Z,6.71
2019-05-29T02:14:42.039Z,6.60
2019-05-29T02:15:42.034Z,6.71
2019-05-29T02:16:42.039Z,6.69
2019-05-29T02:17:42.017Z,6.65
2019-05-29T02:18:42.000Z,6.61
2019-05-29T02:19:41.986Z,6.63
2019-05-29T02:20:41.975Z,6.60
2019-05-29T02:21:41.975Z,6.63
2019-05-29T02:22:41.955Z,6.69
2019-05-29T02:23:41.951Z,6.50
2019-05-29T02:24:41.930Z,6.51
2019-05-29T02:25:41.919Z,6.55
2019-05-29T02:26:41.927Z,6.45
2019-05-29T02:27:41.897Z,6.48
2019-05-29T02:28:41.884Z,6.48
2019-05-29T02:29:41.883Z,6.54
2019-05-29T02:30:41.875Z,6.42
2019-05-29T02:31:41.863Z,6.45
2019-05-29T02:32:41.852Z,6.42
2019-05-29T02:33:41.833Z,6.46
2019-05-29T02:34:41.820Z,6.45
2019-05-29T02:35:41.822Z,6.43
2019-05-29T02:36:41.807Z,6.40
2019-05-29T02:37:41.800Z,6.39
2019-05-29T02:38:41.778Z,6.35
2019-05-29T02:39:41.763Z,6.30
2019-05-29T02:40:41.763Z,6.27
2019-05-29T02:41:41.753Z,6.25
2019-05-29T02:42:41.750Z,6.24
2019-05-29T02:43:41.722Z,6.28
2019-05-29T02:44:41.709Z,6.28
2019-05-29T02:45:53.532Z,6.14
2019-05-29T02:46:42.690Z,6.25
2019-05-29T02:47:41.695Z,6.19
2019-05-29T02:48:41.664Z,6.14
2019-05-29T02:49:41.655Z,6.20
2019-05-29T02:50:41.644Z,6.14
2019-05-29T02:51:41.634Z,6.14
2019-05-29T02:52:41.640Z,6.10
2019-05-29T02:53:41.614Z,6.02
2019-05-29T02:54:41.598Z,6.02
2019-05-29T02:55:41.589Z,6.06
2019-05-29T02:56:42.848Z,6.08
2019-05-29T02:57:41.570Z,6.05
2019-05-29T02:58:41.586Z,5.96
2019-05-29T02:59:41.558Z,5.96
2019-05-29T03:00:41.532Z,5.93
2019-05-29T03:01:41.527Z,5.96
2019-05-29T03:02:41.517Z,5.92
2019-05-29T03:03:41.500Z,5.96
2019-05-29T03:04:41.500Z,5.92
2019-05-29T03:05:41.507Z,5.99
2019-05-29T03:06:41.485Z,5.98
2019-05-29T03:07:41.461Z,5.88
2019-05-29T03:08:41.457Z,5.93
2019-05-29T03:09:41.433Z,5.95
2019-05-29T03:10:41.423Z,5.87
2019-05-29T03:11:41.423Z,5.92
2019-05-29T03:12:41.400Z,5.83
2019-05-29T03:13:41.403Z,5.83
2019-05-29T03:14:41.377Z,5.78
2019-05-29T03:15:41.377Z,5.81
2019-05-29T03:16:41.355Z,5.75
2019-05-29T03:17:41.347Z,5.70
2019-05-29T03:18:41.347Z,5.67
2019-05-29T03:19:41.967Z,5.74
2019-05-29T03:20:41.315Z,5.70
2019-05-29T03:21:41.300Z,5.65
2019-05-29T03:22:41.288Z,5.67
2019-05-29T03:23:41.296Z,5.77
2019-05-29T03:24:41.282Z,5.74
2019-05-29T03:25:41.255Z,5.67
2019-05-29T03:26:41.246Z,5.65
2019-05-29T03:27:41.234Z,5.58
2019-05-29T03:28:41.232Z,5.66
2019-05-29T03:29:41.240Z,5.65
2019-05-29T03:30:45.685Z,5.65
2019-05-29T03:31:47.286Z,5.63
2019-05-29T03:32:47.891Z,5.59
2019-05-29T03:33:49.045Z,5.74
2019-05-29T03:34:46.713Z,5.67
2019-05-29T03:35:47.661Z,5.67
2019-05-29T03:36:47.848Z,5.60
2019-05-29T03:37:42.136Z,5.60
2019-05-29T03:38:41.120Z,5.65
2019-05-29T03:39:41.138Z,5.62
2019-05-29T03:40:41.089Z,5.56
2019-05-29T03:41:41.082Z,5.59
2019-05-29T03:42:41.069Z,5.59
2019-05-29T03:43:41.063Z,5.56
2019-05-29T03:44:41.051Z,5.56
2019-05-29T03:45:41.056Z,5.42
2019-05-29T03:46:45.597Z,5.51
2019-05-29T03:47:42.013Z,5.47
2019-05-29T03:48:41.006Z,5.40
2019-05-29T03:49:40.991Z,5.38
2019-05-29T03:50:41.001Z,5.35
2019-05-29T03:51:40.970Z,5.37
2019-05-29T03:52:40.961Z,5.40
2019-05-29T03:53:40.946Z,5.47
2019-05-29T03:54:40.947Z,5.30
2019-05-29T03:55:40.926Z,5.47
2019-05-29T03:56:40.929Z,5.27
2019-05-29T03:57:40.905Z,5.33
2019-05-29T03:58:40.891Z,5.37
2019-05-29T03:59:40.885Z,5.30
2019-05-29T04:00:46.109Z,5.30
2019-05-29T04:01:41.864Z,5.29
2019-05-29T04:02:40.846Z,5.24
2019-05-29T04:03:40.851Z,5.30
2019-05-29T04:04:40.829Z,5.20
2019-05-29T04:05:40.826Z,5.26
2019-05-29T04:06:40.817Z,5.17
2019-05-29T04:07:40.794Z,5.30
2019-05-29T04:08:40.779Z,5.27
2019-05-29T04:09:40.769Z,5.20
2019-05-29T04:10:40.772Z,5.17
2019-05-29T04:11:40.772Z,5.33
2019-05-29T04:12:40.749Z,5.33
2019-05-29T04:13:40.731Z,5.38
2019-05-29T04:14:40.720Z,5.33
2019-05-29T04:15:40.724Z,5.45
2019-05-29T04:16:58.582Z,5.40
2019-05-29T04:17:41.717Z,5.48
2019-05-29T04:18:40.753Z,5.45
2019-05-29T04:19:40.657Z,5.49
2019-05-29T04:20:40.653Z,5.51
2019-05-29T04:21:40.636Z,5.55
2019-05-29T04:22:40.631Z,5.59
2019-05-29T04:23:40.653Z,5.67
2019-05-29T04:24:40.603Z,5.55
2019-05-29T04:25:43.060Z,5.75
2019-05-29T04:26:40.599Z,5.67
2019-05-29T04:27:40.574Z,5.77
2019-05-29T04:28:40.556Z,5.73
2019-05-29T04:29:40.560Z,5.80
2019-05-29T04:30:40.541Z,5.90
2019-05-29T04:31:40.528Z,5.95
2019-05-29T04:32:40.517Z,5.93
2019-05-29T04:33:40.512Z,6.06
2019-05-29T04:34:40.496Z,6.13
2019-05-29T04:35:40.484Z,6.13
2019-05-29T04:36:40.474Z,6.27
2019-05-29T04:37:40.464Z,6.32
2019-05-29T04:38:40.596Z,6.33
2019-05-29T04:39:40.437Z,6.40
2019-05-29T04:40:40.424Z,6.48
2019-05-29T04:41:40.417Z,6.54
2019-05-29T04:42:40.421Z,6.60
2019-05-29T04:43:40.388Z,6.58
2019-05-29T04:44:41.239Z,6.53
2019-05-29T04:45:40.390Z,6.69
2019-05-29T04:46:40.802Z,6.75
2019-05-29T04:47:40.363Z,6.73
2019-05-29T04:48:40.716Z,6.81
2019-05-29T04:49:40.335Z,6.96
2019-05-29T04:50:40.825Z,6.89
2019-05-29T04:51:40.304Z,6.99
2019-05-29T04:52:40.638Z,7.07
2019-05-29T04:53:40.284Z,7.07
2019-05-29T04:54:40.385Z,7.16
2019-05-29T04:55:40.272Z,7.32
2019-05-29T04:56:40.245Z,7.44
2019-05-29T04:57:40.239Z,7.47
2019-05-29T04:58:40.221Z,7.47
2019-05-29T04:59:40.257Z,7.70
2019-05-29T05:00:40.207Z,7.76
2019-05-29T05:01:40.194Z,7.76
2019-05-29T05:02:40.184Z,7.81
2019-05-29T05:03:40.174Z,7.94
2019-05-29T05:04:40.156Z,8.06
2019-05-29T05:05:40.163Z,8.04
2019-05-29T05:06:40.132Z,8.04
2019-05-29T05:07:40.123Z,8.10
2019-05-29T05:08:40.270Z,8.14
2019-05-29T05:09:40.133Z,8.20
2019-05-29T05:10:40.913Z,8.25
2019-05-29T05:11:40.076Z,8.36
2019-05-29T05:12:40.346Z,8.42
2019-05-29T05:13:40.057Z,8.37
2019-05-29T05:14:40.057Z,8.43
2019-05-29T05:15:40.321Z,8.47
2019-05-29T05:16:40.086Z,8.55
2019-05-29T05:17:40.245Z,8.64
2019-05-29T05:18:40.305Z,8.63
2019-05-29T05:19:40.184Z,8.76
2019-05-29T05:20:40.471Z,8.86
2019-05-29T05:21:40.309Z,8.97
2019-05-29T05:22:40.973Z,9.10
2019-05-29T05:23:40.506Z,9.20
2019-05-29T05:24:43.461Z,9.30
2019-05-29T05:25:40.997Z,9.40
2019-05-29T05:26:40.451Z,9.44
2019-05-29T05:27:40.626Z,9.44
2019-05-29T05:28:43.669Z,9.59
2019-05-29T05:29:40.875Z,9.62
2019-05-29T05:30:40.787Z,9.77
2019-05-29T05:31:40.817Z,9.98
2019-05-29T05:32:41.161Z,9.98
2019-05-29T05:33:40.990Z,9.98
2019-05-29T05:34:41.025Z,10.04
2019-05-29T05:35:41.036Z,10.18
2019-05-29T05:36:40.958Z,10.22
2019-05-29T05:37:40.952Z,10.32
2019-05-29T05:38:40.877Z,10.49
2019-05-29T05:39:41.099Z,10.58
2019-05-29T05:40:42.920Z,10.69
2019-05-29T05:41:40.969Z,10.93
2019-05-29T05:42:39.736Z,11.09
2019-05-29T05:43:39.722Z,11.26
2019-05-29T05:44:39.708Z,11.33
2019-05-29T05:45:39.704Z,11.44
2019-05-29T05:46:39.687Z,11.41
2019-05-29T05:47:53.650Z,11.53
2019-05-29T05:48:41.484Z,11.49
2019-05-29T05:49:39.650Z,11.57
2019-05-29T05:50:39.643Z,11.53
2019-05-29T05:51:42.792Z,11.51
2019-05-29T05:52:39.618Z,11.36
2019-05-29T05:53:39.609Z,11.53
2019-05-29T05:54:39.620Z,11.39
2019-05-29T05:55:39.820Z,11.21
2019-05-29T05:56:39.757Z,11.23
2019-05-29T05:57:39.813Z,11.24
2019-05-29T05:58:39.967Z,11.33
2019-05-29T05:59:39.903Z,11.48
2019-05-29T06:00:39.930Z,11.59
2019-05-29T06:01:40.048Z,11.96
2019-05-29T06:02:40.145Z,11.98
2019-05-29T06:03:40.615Z,11.88
2019-05-29T06:04:40.020Z,12.11
2019-05-29T06:05:40.242Z,12.07
2019-05-29T06:06:40.242Z,12.11
2019-05-29T06:07:40.388Z,12.25
2019-05-29T06:08:40.236Z,12.38
2019-05-29T06:09:40.442Z,12.29
2019-05-29T06:10:40.289Z,12.43
2019-05-29T06:11:40.375Z,12.55
2019-05-29T06:12:40.615Z,12.44
2019-05-29T06:13:40.421Z,12.43
2019-05-29T06:14:40.583Z,12.38
2019-05-29T06:15:40.528Z,12.49
2019-05-29T06:16:40.623Z,12.54
2019-05-29T06:17:40.642Z,12.66
2019-05-29T06:18:39.338Z,12.76
2019-05-29T06:19:39.324Z,12.76
2019-05-29T06:20:39.310Z,12.73
2019-05-29T06:21:39.298Z,12.66
2019-05-29T06:22:39.323Z,12.74
2019-05-29T06:23:39.279Z,12.66
2019-05-29T06:24:39.271Z,12.73
2019-05-29T06:25:40.715Z,12.73
2019-05-29T06:26:39.246Z,12.70
2019-05-29T06:27:39.362Z,12.71
2019-05-29T06:28:39.245Z,12.71
2019-05-29T06:29:39.410Z,12.87
2019-05-29T06:30:40.937Z,13.03
2019-05-29T06:31:39.457Z,13.27
2019-05-29T06:32:39.534Z,13.31
2019-05-29T06:33:39.544Z,13.29
2019-05-29T06:34:39.614Z,13.46
2019-05-29T06:35:39.609Z,13.43
2019-05-29T06:36:39.624Z,13.54
2019-05-29T06:37:39.614Z,13.51
2019-05-29T06:38:40.423Z,13.68
2019-05-29T06:39:39.644Z,13.75
2019-05-29T06:40:40.143Z,13.69
2019-05-29T06:41:40.104Z,13.71
2019-05-29T06:42:39.858Z,13.80
2019-05-29T06:43:39.877Z,14.01
2019-05-29T06:44:39.933Z,14.05
2019-05-29T06:45:39.989Z,14.11
2019-05-29T06:46:40.475Z,14.13
2019-05-29T06:47:40.752Z,14.26
2019-05-29T06:48:48.063Z,14.42
2019-05-29T06:49:40.160Z,14.49
2019-05-29T06:50:39.394Z,14.53
2019-05-29T06:51:39.335Z,14.67
2019-05-29T06:52:39.500Z,14.69
2019-05-29T06:53:39.827Z,14.61
2019-05-29T06:54:39.986Z,14.59
2019-05-29T06:55:39.889Z,14.57
2019-05-29T06:56:39.793Z,14.74
2019-05-29T06:57:40.278Z,14.95
2019-05-29T06:58:40.043Z,15.15
2019-05-29T06:59:40.325Z,15.34
2019-05-29T07:00:39.405Z,15.44
2019-05-29T07:01:39.463Z,15.64
2019-05-29T07:02:38.850Z,15.71
2019-05-29T07:03:39.683Z,15.81
2019-05-29T07:04:38.830Z,15.91
2019-05-29T07:05:39.857Z,15.78
2019-05-29T07:06:38.812Z,15.76
2019-05-29T07:07:40.177Z,15.88
2019-05-29T07:08:44.017Z,16.14
2019-05-29T07:09:40.950Z,16.42
2019-05-29T07:10:40.202Z,16.41
2019-05-29T07:11:39.069Z,16.51
2019-05-29T07:12:38.744Z,16.32
2019-05-29T07:13:41.883Z,15.98
2019-05-29T07:14:40.241Z,15.89
2019-05-29T07:15:38.744Z,15.78
2019-05-29T07:16:46.381Z,15.67
2019-05-29T07:17:40.452Z,15.81
2019-05-29T07:18:38.718Z,16.10
2019-05-29T07:19:51.025Z,16.40
2019-05-29T07:20:40.658Z,16.48
2019-05-29T07:21:38.877Z,16.44
2019-05-29T07:22:38.958Z,16.72
2019-05-29T07:23:38.851Z,16.82
2019-05-29T07:24:38.783Z,17.02
2019-05-29T07:25:38.797Z,17.21
2019-05-29T07:26:38.954Z,17.18
2019-05-29T07:27:38.881Z,17.24
2019-05-29T07:28:55.480Z,17.21
2019-05-29T07:29:41.015Z,17.18
2019-05-29T07:30:39.265Z,17.22
2019-05-29T07:31:38.852Z,17.06
2019-05-29T07:32:40.501Z,16.73
2019-05-29T07:33:38.986Z,16.44
2019-05-29T07:34:51.367Z,16.44
2019-05-29T07:35:39.496Z,16.66
2019-05-29T07:36:39.891Z,16.81
2019-05-29T07:37:39.719Z,16.84
2019-05-29T07:38:39.665Z,16.92
2019-05-29T07:39:39.452Z,17.20
2019-05-29T07:40:39.077Z,17.30
2019-05-29T07:41:39.480Z,17.51
2019-05-29T07:42:39.965Z,17.63
2019-05-29T07:43:39.693Z,17.68
2019-05-29T07:44:38.414Z,17.71
2019-05-29T07:45:38.437Z,17.83
2019-05-29T07:46:38.376Z,18.01
2019-05-29T07:47:38.469Z,18.02
2019-05-29T07:48:38.514Z,18.02
2019-05-29T07:49:41.025Z,18.05
2019-05-29T07:50:40.079Z,18.10
2019-05-29T07:51:38.348Z,17.95
2019-05-29T07:52:38.663Z,18.04
2019-05-29T07:53:38.303Z,18.10
2019-05-29T07:54:39.846Z,18.14
2019-05-29T07:55:38.497Z,18.25
2019-05-29T07:56:38.383Z,18.47
2019-05-29T07:57:38.831Z,18.71
2019-05-29T07:58:38.717Z,18.93
2019-05-29T07:59:38.572Z,18.83
2019-05-29T08:01:00.978Z,18.94
2019-05-29T08:01:39.214Z,18.91
2019-05-29T08:02:39.343Z,18.84
2019-05-29T08:03:39.246Z,18.79
2019-05-29T08:04:38.897Z,18.84
2019-05-29T08:05:39.186Z,18.99
2019-05-29T08:06:39.485Z,18.94
2019-05-29T08:07:39.433Z,19.07
2019-05-29T08:08:39.155Z,19.13
2019-05-29T08:09:39.221Z,19.24
2019-05-29T08:10:39.808Z,19.39
2019-05-29T08:11:39.391Z,19.40
2019-05-29T08:12:42.230Z,19.27
2019-05-29T08:13:39.460Z,19.02
2019-05-29T08:14:38.092Z,19.06
2019-05-29T08:15:52.059Z,19.21
2019-05-29T08:16:39.777Z,19.35
2019-05-29T08:17:38.045Z,19.28
2019-05-29T08:18:38.077Z,19.40
2019-05-29T08:19:55.473Z,19.57
2019-05-29T08:20:39.807Z,19.60
2019-05-29T08:21:38.065Z,19.82
2019-05-29T08:22:38.003Z,19.75
2019-05-29T08:23:38.010Z,19.87
2019-05-29T08:24:37.988Z,20.04
2019-05-29T08:25:37.964Z,19.90
2019-05-29T08:26:37.953Z,20.02
2019-05-29T08:27:37.948Z,20.05
2019-05-29T08:28:37.936Z,20.20
2019-05-29T08:29:37.938Z,20.17
2019-05-29T08:30:37.929Z,20.07
2019-05-29T08:31:37.900Z,20.15
2019-05-29T08:32:37.907Z,20.22
2019-05-29T08:33:37.882Z,20.25
2019-05-29T08:34:37.884Z,20.35
2019-05-29T08:35:37.902Z,20.37
2019-05-29T08:36:37.853Z,20.01
2019-05-29T08:37:37.837Z,19.42
2019-05-29T08:38:37.853Z,19.10
2019-05-29T08:39:37.825Z,19.15
2019-05-29T08:40:37.803Z,19.30
2019-05-29T08:41:37.792Z,19.31
2019-05-29T08:42:37.797Z,19.53
2019-05-29T08:43:37.780Z,19.42
2019-05-29T08:44:37.762Z,19.34
2019-05-29T08:45:37.768Z,19.27
2019-05-29T08:46:37.755Z,19.32
2019-05-29T08:47:37.739Z,19.43
2019-05-29T08:48:37.727Z,19.32
2019-05-29T08:49:37.725Z,19.31
2019-05-29T08:50:37.706Z,19.05
2019-05-29T08:51:37.691Z,19.09
2019-05-29T08:52:37.683Z,18.94
2019-05-29T08:53:37.686Z,18.84
2019-05-29T08:54:37.669Z,18.91
2019-05-29T08:55:37.650Z,19.02
2019-05-29T08:56:37.652Z,19.15
2019-05-29T08:57:37.669Z,19.21
2019-05-29T08:58:38.305Z,19.35
2019-05-29T08:59:37.620Z,19.58
2019-05-29T09:00:37.605Z,19.85
2019-05-29T09:01:37.605Z,20.15
2019-05-29T09:02:37.593Z,20.56
2019-05-29T09:03:37.575Z,20.88
2019-05-29T09:04:37.559Z,21.12
2019-05-29T09:05:37.566Z,21.27
2019-05-29T09:06:37.563Z,21.46
2019-05-29T09:07:37.535Z,21.55
2019-05-29T09:08:37.521Z,21.63
2019-05-29T09:09:37.525Z,21.48
2019-05-29T09:10:37.509Z,21.34
2019-05-29T09:11:37.498Z,21.51
2019-05-29T09:12:37.504Z,21.22
2019-05-29T09:13:37.471Z,21.16
2019-05-29T09:14:37.475Z,21.30
2019-05-29T09:15:37.455Z,21.31
2019-05-29T09:16:37.443Z,21.08
2019-05-29T09:17:37.449Z,20.88
2019-05-29T09:18:37.426Z,21.11
2019-05-29T09:19:37.413Z,21.26
2019-05-29T09:21:00.705Z,21.53
2019-05-29T09:21:38.392Z,21.90
2019-05-29T09:22:37.383Z,22.12
2019-05-29T09:23:37.373Z,22.09
2019-05-29T09:24:37.365Z,22.30
2019-05-29T09:25:37.359Z,22.38
2019-05-29T09:26:37.356Z,22.59
2019-05-29T09:27:37.392Z,22.41
2019-05-29T09:28:37.324Z,22.30
2019-05-29T09:29:37.320Z,22.09
2019-05-29T09:30:37.304Z,22.17
2019-05-29T09:31:37.370Z,22.04
2019-05-29T09:32:52.518Z,22.20
2019-05-29T09:33:38.292Z,22.44
2019-05-29T09:34:37.344Z,22.31
2019-05-29T09:35:37.254Z,22.51
2019-05-29T09:36:37.244Z,22.59
2019-05-29T09:37:37.248Z,22.64
2019-05-29T09:38:37.249Z,22.72
2019-05-29T09:39:37.220Z,22.56
2019-05-29T09:40:37.205Z,22.45
2019-05-29T09:41:37.221Z,22.45
2019-05-29T09:42:37.213Z,22.66
2019-05-29T09:43:37.182Z,22.67
2019-05-29T09:44:39.308Z,22.79
2019-05-29T09:45:37.155Z,22.99
2019-05-29T09:46:37.148Z,23.12
2019-05-29T09:47:37.138Z,23.35
2019-05-29T09:48:49.136Z,23.38
2019-05-29T09:49:38.121Z,23.42
2019-05-29T09:50:49.585Z,23.62
2019-05-29T09:51:38.099Z,23.67
2019-05-29T09:52:37.195Z,23.86
2019-05-29T09:53:37.081Z,24.05
2019-05-29T09:54:37.182Z,24.11
2019-05-29T09:55:37.074Z,23.82
2019-05-29T09:56:37.054Z,23.87
2019-05-29T09:57:37.049Z,23.87
2019-05-29T09:58:37.051Z,23.90
2019-05-29T09:59:37.037Z,23.72
2019-05-29T10:00:37.015Z,23.75
2019-05-29T10:01:37.015Z,23.74
2019-05-29T10:02:37.014Z,23.62
2019-05-29T10:03:36.989Z,23.59
2019-05-29T10:04:36.989Z,23.62
2019-05-29T10:05:36.977Z,23.67
2019-05-29T10:06:36.960Z,23.41
2019-05-29T10:07:36.969Z,23.04
2019-05-29T10:08:36.960Z,23.15
2019-05-29T10:09:36.942Z,23.35
2019-05-29T10:10:36.924Z,23.49
2019-05-29T10:11:36.913Z,23.64
2019-05-29T10:12:36.905Z,23.86
2019-05-29T10:13:36.938Z,23.82
2019-05-29T10:14:36.897Z,24.00
2019-05-29T10:15:36.871Z,24.04
2019-05-29T10:16:36.862Z,23.84
2019-05-29T10:17:36.853Z,23.59
2019-05-29T10:18:36.859Z,22.86
2019-05-29T10:19:36.847Z,22.26
2019-05-29T10:20:36.823Z,22.20
2019-05-29T10:21:40.655Z,22.26
2019-05-29T10:22:36.808Z,22.42
2019-05-29T10:23:36.812Z,22.46
2019-05-29T10:24:36.801Z,22.44
2019-05-29T10:25:36.781Z,22.63
2019-05-29T10:26:36.778Z,22.97
2019-05-29T10:27:36.758Z,23.19
2019-05-29T10:28:50.297Z,23.68
2019-05-29T10:29:37.741Z,23.53
2019-05-29T10:30:36.737Z,23.56
2019-05-29T10:31:36.723Z,23.69
2019-05-29T10:32:36.708Z,23.93
2019-05-29T10:33:36.699Z,24.11
2019-05-29T10:34:36.702Z,24.30
2019-05-29T10:35:36.699Z,24.59
2019-05-29T10:36:36.702Z,24.66
2019-05-29T10:37:36.661Z,24.16
2019-05-29T10:38:36.654Z,24.05
2019-05-29T10:39:36.750Z,24.02
2019-05-29T10:40:36.635Z,24.06
2019-05-29T10:41:36.624Z,24.06
2019-05-29T10:42:36.616Z,24.15
2019-05-29T10:43:36.618Z,24.33
2019-05-29T10:44:36.609Z,24.55
2019-05-29T10:45:36.599Z,24.64
2019-05-29T10:46:36.592Z,24.80
2019-05-29T10:47:36.573Z,24.77
2019-05-29T10:48:36.557Z,24.98
2019-05-29T10:49:36.565Z,25.04
2019-05-29T10:50:36.541Z,24.99
2019-05-29T10:51:36.530Z,25.22
2019-05-29T10:52:36.525Z,25.27
2019-05-29T10:53:36.508Z,25.19
2019-05-29T10:54:39.256Z,25.29
2019-05-29T10:55:36.492Z,25.46
2019-05-29T10:56:36.486Z,25.57
2019-05-29T10:57:36.477Z,25.66
2019-05-29T10:58:48.493Z,25.63
2019-05-29T10:59:37.473Z,25.78
2019-05-29T11:00:39.062Z,25.83
2019-05-29T11:01:36.452Z,25.74
2019-05-29T11:02:36.437Z,25.81
2019-05-29T11:03:36.420Z,25.63
2019-05-29T11:04:36.405Z,25.67
2019-05-29T11:05:36.408Z,25.63
2019-05-29T11:06:40.248Z,25.60
2019-05-29T11:07:36.380Z,24.93
2019-05-29T11:08:36.374Z,24.41
2019-05-29T11:09:44.444Z,24.18
2019-05-29T11:10:37.360Z,24.18
2019-05-29T11:11:36.342Z,24.08
2019-05-29T11:12:39.235Z,24.19
2019-05-29T11:13:36.329Z,24.11
2019-05-29T11:14:36.316Z,24.12
2019-05-29T11:15:36.302Z,24.29
2019-05-29T11:16:39.719Z,24.18
2019-05-29T11:17:36.296Z,24.37
2019-05-29T11:18:36.269Z,24.67
2019-05-29T11:19:36.266Z,24.77
2019-05-29T11:20:36.293Z,24.93
2019-05-29T11:21:36.240Z,24.94
2019-05-29T11:22:36.238Z,24.84
2019-05-29T11:23:36.226Z,24.49
2019-05-29T11:24:36.213Z,24.51
2019-05-29T11:25:36.202Z,24.39
2019-05-29T11:26:36.208Z,24.41
2019-05-29T11:27:36.181Z,24.53
2019-05-29T11:28:36.177Z,24.60
2019-05-29T11:29:36.177Z,24.68
2019-05-29T11:30:36.158Z,24.61
2019-05-29T11:31:36.168Z,24.61
2019-05-29T11:32:36.141Z,24.46
2019-05-29T11:33:36.129Z,24.46
2019-05-29T11:34:36.130Z,24.48
2019-05-29T11:35:36.103Z,24.55
2019-05-29T11:36:36.105Z,24.52
2019-05-29T11:37:36.089Z,24.64
2019-05-29T11:38:36.073Z,24.97
2019-05-29T11:39:36.077Z,25.12
2019-05-29T11:40:36.155Z,25.08
2019-05-29T11:41:36.045Z,24.87
2019-05-29T11:42:36.050Z,24.68
2019-05-29T11:43:36.026Z,23.82
2019-05-29T11:44:36.046Z,23.38
2019-05-29T11:45:36.150Z,23.41
2019-05-29T11:46:35.999Z,23.57
2019-05-29T11:47:35.995Z,23.86
2019-05-29T11:48:35.984Z,24.08
2019-05-29T11:49:35.991Z,24.18
2019-05-29T11:50:35.973Z,24.37
2019-05-29T11:51:35.946Z,24.04
2019-05-29T11:52:43.016Z,23.75
2019-05-29T11:53:36.933Z,23.69
2019-05-29T11:54:35.940Z,23.94
2019-05-29T11:55:35.917Z,24.23
2019-05-29T11:56:35.898Z,24.68
2019-05-29T11:57:39.319Z,24.94
2019-05-29T11:58:35.888Z,24.99
2019-05-29T11:59:35.903Z,25.09
2019-05-29T12:00:35.860Z,25.27
2019-05-29T12:01:49.559Z,25.23
2019-05-29T12:02:36.864Z,25.35
2019-05-29T12:03:35.834Z,25.35
2019-05-29T12:04:35.823Z,25.44
2019-05-29T12:05:35.826Z,25.46
2019-05-29T12:06:35.861Z,25.35
2019-05-29T12:07:35.793Z,25.31
2019-05-29T12:08:35.794Z,25.44
2019-05-29T12:09:35.925Z,25.78
2019-05-29T12:10:35.781Z,25.79
2019-05-29T12:11:35.754Z,25.66
2019-05-29T12:12:35.746Z,25.71
2019-05-29T12:13:35.733Z,25.66
2019-05-29T12:14:55.620Z,25.64
2019-05-29T12:15:36.731Z,25.76
2019-05-29T12:16:35.705Z,25.69
2019-05-29T12:17:35.806Z,25.29
2019-05-29T12:18:35.683Z,25.34
2019-05-29T12:19:35.677Z,25.26
2019-05-29T12:20:35.685Z,25.42
2019-05-29T12:21:35.659Z,25.60
2019-05-29T12:22:35.675Z,25.64
2019-05-29T12:23:35.639Z,25.66
2019-05-29T12:24:35.630Z,25.91
2019-05-29T12:25:35.621Z,26.00
2019-05-29T12:26:35.621Z,26.13
2019-05-29T12:27:35.600Z,26.20
2019-05-29T12:28:35.610Z,25.85
2019-05-29T12:29:35.581Z,25.71
2019-05-29T12:30:35.577Z,25.85
2019-05-29T12:31:35.574Z,25.79
2019-05-29T12:32:35.555Z,25.96
2019-05-29T12:33:35.539Z,26.20
2019-05-29T12:34:35.530Z,26.32
2019-05-29T12:35:35.525Z,26.35
2019-05-29T12:36:35.524Z,26.13
2019-05-29T12:37:35.502Z,26.19
2019-05-29T12:38:35.490Z,26.29
2019-05-29T12:39:35.487Z,26.49
2019-05-29T12:40:35.481Z,26.34
2019-05-29T12:41:35.579Z,26.23
2019-05-29T12:42:35.455Z,26.24
2019-05-29T12:43:35.455Z,26.42
2019-05-29T12:44:35.439Z,26.44
2019-05-29T12:45:35.425Z,26.42
2019-05-29T12:46:35.418Z,26.39
2019-05-29T12:47:35.421Z,26.34
2019-05-29T12:48:35.406Z,26.28
2019-05-29T12:49:35.386Z,26.24
2019-05-29T12:50:35.381Z,26.44
2019-05-29T12:51:35.365Z,26.51
2019-05-29T12:52:35.367Z,26.49
2019-05-29T12:53:35.388Z,26.51
2019-05-29T12:54:35.354Z,26.50
2019-05-29T12:55:35.354Z,26.39
2019-05-29T12:56:35.323Z,26.31
2019-05-29T12:57:35.345Z,26.35
2019-05-29T12:58:35.309Z,26.36
2019-05-29T12:59:35.292Z,26.50
2019-05-29T13:00:35.276Z,26.50
2019-05-29T13:01:35.294Z,26.53
2019-05-29T13:02:35.258Z,26.35
2019-05-29T13:03:35.312Z,26.12